sensor_id;sensor_type;location;lat;lon;timestamp;P1;durP1;ratioP1;P2;durP2;ratioP2
7899;SDS011;3995;50.856;4.404;2023-09-19T00:00:16;9.93;;;2.87;;
7899;SDS011;3995;50.856;4.404;2023-09-19T00:02:46;11.07;;;2.60;;
7899;SDS011;3995;50.856;4.404;2023-09-19T00:05:17;11.33;;;3.37;;
7899;SDS011;3995;50.856;4.404;2023-09-19T00:07:49;7.77;;;2.60;;
7899;SDS011;3995;50.856;4.404;2023-09-19T00:10:17;7.17;;;2.80;;
7899;SDS011;3995;50.856;4.404;2023-09-19T00:12:44;11.30;;;3.47;;
7899;SDS011;3995;50.856;4.404;2023-09-19T00:15:13;9.80;;;3.40;;
7899;SDS011;3995;50.856;4.404;2023-09-19T00:17:42;15.73;;;3.10;;
7899;SDS011;3995;50.856;4.404;2023-09-19T00:20:10;9.97;;;2.90;;
7899;SDS011;3995;50.856;4.404;2023-09-19T00:22:39;13.20;;;3.77;;
7899;SDS011;3995;50.856;4.404;2023-09-19T00:25:07;13.67;;;3.07;;
7899;SDS011;3995;50.856;4.404;2023-09-19T00:27:36;9.20;;;2.70;;
7899;SDS011;3995;50.856;4.404;2023-09-19T00:30:07;8.23;;;2.90;;
7899;SDS011;3995;50.856;4.404;2023-09-19T00:32:40;9.10;;;2.47;;
7899;SDS011;3995;50.856;4.404;2023-09-19T00:35:07;9.87;;;3.23;;
7899;SDS011;3995;50.856;4.404;2023-09-19T00:37:35;12.13;;;3.20;;
7899;SDS011;3995;50.856;4.404;2023-09-19T00:40:05;7.27;;;2.87;;
7899;SDS011;3995;50.856;4.404;2023-09-19T00:42:36;9.27;;;3.07;;
7899;SDS011;3995;50.856;4.404;2023-09-19T00:45:04;10.00;;;2.90;;
7899;SDS011;3995;50.856;4.404;2023-09-19T00:47:32;6.97;;;2.43;;
7899;SDS011;3995;50.856;4.404;2023-09-19T00:50:00;9.07;;;3.53;;
7899;SDS011;3995;50.856;4.404;2023-09-19T00:52:32;12.67;;;3.10;;
7899;SDS011;3995;50.856;4.404;2023-09-19T00:55:01;10.30;;;3.43;;
7899;SDS011;3995;50.856;4.404;2023-09-19T00:57:29;11.27;;;2.63;;
7899;SDS011;3995;50.856;4.404;2023-09-19T00:59:58;12.00;;;3.70;;
7899;SDS011;3995;50.856;4.404;2023-09-19T01:02:30;5.70;;;2.60;;
7899;SDS011;3995;50.856;4.404;2023-09-19T01:04:57;7.90;;;2.60;;
7899;SDS011;3995;50.856;4.404;2023-09-19T01:07:26;10.53;;;3.37;;
7899;SDS011;3995;50.856;4.404;2023-09-19T01:09:55;9.33;;;3.37;;
7899;SDS011;3995;50.856;4.404;2023-09-19T01:12:29;7.10;;;2.47;;
7899;SDS011;3995;50.856;4.404;2023-09-19T01:15:06;8.80;;;2.80;;
7899;SDS011;3995;50.856;4.404;2023-09-19T01:17:42;7.20;;;2.20;;
7899;SDS011;3995;50.856;4.404;2023-09-19T01:20:17;10.07;;;3.03;;
7899;SDS011;3995;50.856;4.404;2023-09-19T01:22:56;7.87;;;2.90;;
7899;SDS011;3995;50.856;4.404;2023-09-19T01:28:51;13.73;;;3.20;;
7899;SDS011;3995;50.856;4.404;2023-09-19T01:31:24;6.13;;;2.37;;
7899;SDS011;3995;50.856;4.404;2023-09-19T01:33:59;7.90;;;2.73;;
7899;SDS011;3995;50.856;4.404;2023-09-19T01:36:27;9.93;;;3.23;;
7899;SDS011;3995;50.856;4.404;2023-09-19T01:38:59;6.97;;;2.60;;
7899;SDS011;3995;50.856;4.404;2023-09-19T01:41:41;11.73;;;3.37;;
7899;SDS011;3995;50.856;4.404;2023-09-19T01:44:17;9.03;;;3.17;;
7899;SDS011;3995;50.856;4.404;2023-09-19T01:46:52;9.43;;;2.80;;
7899;SDS011;3995;50.856;4.404;2023-09-19T01:49:29;11.57;;;3.47;;
7899;SDS011;3995;50.856;4.404;2023-09-19T01:52:04;11.93;;;3.50;;
7899;SDS011;3995;50.856;4.404;2023-09-19T01:54:40;9.97;;;3.83;;
7899;SDS011;3995;50.856;4.404;2023-09-19T01:57:14;8.10;;;3.03;;
7899;SDS011;3995;50.856;4.404;2023-09-19T01:59:48;7.90;;;2.60;;
7899;SDS011;3995;50.856;4.404;2023-09-19T02:02:23;13.23;;;2.83;;
7899;SDS011;3995;50.856;4.404;2023-09-19T02:04:51;10.27;;;2.43;;
7899;SDS011;3995;50.856;4.404;2023-09-19T02:07:20;7.80;;;2.93;;
7899;SDS011;3995;50.856;4.404;2023-09-19T02:09:48;8.70;;;2.97;;
7899;SDS011;3995;50.856;4.404;2023-09-19T02:12:15;8.77;;;2.90;;
7899;SDS011;3995;50.856;4.404;2023-09-19T02:14:42;12.10;;;2.83;;
7899;SDS011;3995;50.856;4.404;2023-09-19T02:17:09;16.53;;;3.10;;
7899;SDS011;3995;50.856;4.404;2023-09-19T02:19:39;14.67;;;3.10;;
7899;SDS011;3995;50.856;4.404;2023-09-19T02:22:07;13.67;;;3.10;;
7899;SDS011;3995;50.856;4.404;2023-09-19T02:24:35;8.70;;;3.27;;
7899;SDS011;3995;50.856;4.404;2023-09-19T02:27:03;21.30;;;3.77;;
7899;SDS011;3995;50.856;4.404;2023-09-19T02:29:31;5.17;;;2.90;;
7899;SDS011;3995;50.856;4.404;2023-09-19T02:31:59;10.60;;;3.17;;
7899;SDS011;3995;50.856;4.404;2023-09-19T02:34:27;7.33;;;2.70;;
7899;SDS011;3995;50.856;4.404;2023-09-19T02:36:56;6.20;;;3.10;;
7899;SDS011;3995;50.856;4.404;2023-09-19T02:39:23;14.30;;;3.53;;
7899;SDS011;3995;50.856;4.404;2023-09-19T02:41:50;13.63;;;3.47;;
7899;SDS011;3995;50.856;4.404;2023-09-19T02:44:17;7.60;;;3.20;;
7899;SDS011;3995;50.856;4.404;2023-09-19T02:46:45;11.70;;;3.10;;
7899;SDS011;3995;50.856;4.404;2023-09-19T02:49:12;7.87;;;3.47;;
7899;SDS011;3995;50.856;4.404;2023-09-19T02:51:39;12.23;;;3.53;;
7899;SDS011;3995;50.856;4.404;2023-09-19T02:54:08;12.80;;;3.73;;
7899;SDS011;3995;50.856;4.404;2023-09-19T02:56:36;16.57;;;3.97;;
7899;SDS011;3995;50.856;4.404;2023-09-19T02:59:03;9.37;;;3.10;;
7899;SDS011;3995;50.856;4.404;2023-09-19T03:01:30;9.00;;;3.23;;
7899;SDS011;3995;50.856;4.404;2023-09-19T03:03:58;11.90;;;3.50;;
7899;SDS011;3995;50.856;4.404;2023-09-19T03:06:25;9.47;;;3.30;;
7899;SDS011;3995;50.856;4.404;2023-09-19T03:08:52;10.80;;;2.63;;
7899;SDS011;3995;50.856;4.404;2023-09-19T03:11:23;6.67;;;3.10;;
7899;SDS011;3995;50.856;4.404;2023-09-19T03:13:50;9.03;;;3.10;;
7899;SDS011;3995;50.856;4.404;2023-09-19T03:16:18;11.47;;;3.03;;
7899;SDS011;3995;50.856;4.404;2023-09-19T03:18:47;8.03;;;2.53;;
7899;SDS011;3995;50.856;4.404;2023-09-19T03:21:14;10.27;;;3.10;;
7899;SDS011;3995;50.856;4.404;2023-09-19T03:23:41;7.87;;;3.13;;
7899;SDS011;3995;50.856;4.404;2023-09-19T03:26:10;12.00;;;2.93;;
7899;SDS011;3995;50.856;4.404;2023-09-19T03:28:41;7.40;;;2.53;;
7899;SDS011;3995;50.856;4.404;2023-09-19T03:31:08;11.53;;;3.10;;
7899;SDS011;3995;50.856;4.404;2023-09-19T03:33:36;9.60;;;3.03;;
7899;SDS011;3995;50.856;4.404;2023-09-19T03:36:03;7.30;;;2.63;;
7899;SDS011;3995;50.856;4.404;2023-09-19T03:38:31;9.10;;;2.93;;
7899;SDS011;3995;50.856;4.404;2023-09-19T03:40:59;12.17;;;3.50;;
7899;SDS011;3995;50.856;4.404;2023-09-19T03:43:26;6.13;;;2.43;;
7899;SDS011;3995;50.856;4.404;2023-09-19T03:45:54;7.63;;;2.97;;
7899;SDS011;3995;50.856;4.404;2023-09-19T03:48:21;8.23;;;3.00;;
7899;SDS011;3995;50.856;4.404;2023-09-19T03:50:48;8.33;;;3.17;;
7899;SDS011;3995;50.856;4.404;2023-09-19T03:53:16;13.50;;;3.40;;
7899;SDS011;3995;50.856;4.404;2023-09-19T03:55:44;7.93;;;3.00;;
7899;SDS011;3995;50.856;4.404;2023-09-19T03:58:12;10.23;;;3.20;;
7899;SDS011;3995;50.856;4.404;2023-09-19T04:00:39;11.93;;;3.50;;
7899;SDS011;3995;50.856;4.404;2023-09-19T04:03:07;9.60;;;3.20;;
7899;SDS011;3995;50.856;4.404;2023-09-19T04:05:35;13.63;;;4.07;;
7899;SDS011;3995;50.856;4.404;2023-09-19T04:08:03;9.13;;;2.77;;
7899;SDS011;3995;50.856;4.404;2023-09-19T04:10:30;9.10;;;2.60;;
7899;SDS011;3995;50.856;4.404;2023-09-19T04:12:57;13.33;;;3.90;;
7899;SDS011;3995;50.856;4.404;2023-09-19T04:15:24;11.47;;;3.50;;
7899;SDS011;3995;50.856;4.404;2023-09-19T04:17:52;11.23;;;3.30;;
7899;SDS011;3995;50.856;4.404;2023-09-19T04:20:20;7.13;;;3.07;;
7899;SDS011;3995;50.856;4.404;2023-09-19T04:22:49;11.20;;;2.93;;
7899;SDS011;3995;50.856;4.404;2023-09-19T04:25:16;12.10;;;3.30;;
7899;SDS011;3995;50.856;4.404;2023-09-19T04:27:43;8.23;;;3.20;;
7899;SDS011;3995;50.856;4.404;2023-09-19T04:30:11;6.53;;;2.73;;
7899;SDS011;3995;50.856;4.404;2023-09-19T04:32:39;7.73;;;3.07;;
7899;SDS011;3995;50.856;4.404;2023-09-19T04:35:07;8.70;;;3.17;;
7899;SDS011;3995;50.856;4.404;2023-09-19T04:37:38;14.90;;;3.83;;
7899;SDS011;3995;50.856;4.404;2023-09-19T04:40:07;9.53;;;3.10;;
7899;SDS011;3995;50.856;4.404;2023-09-19T04:42:39;8.30;;;3.07;;
7899;SDS011;3995;50.856;4.404;2023-09-19T04:45:07;7.60;;;3.20;;
7899;SDS011;3995;50.856;4.404;2023-09-19T04:47:35;7.60;;;2.87;;
7899;SDS011;3995;50.856;4.404;2023-09-19T04:50:04;9.53;;;3.17;;
7899;SDS011;3995;50.856;4.404;2023-09-19T04:52:33;7.70;;;2.70;;
7899;SDS011;3995;50.856;4.404;2023-09-19T04:55:02;13.63;;;3.80;;
7899;SDS011;3995;50.856;4.404;2023-09-19T04:57:30;10.90;;;3.10;;
7899;SDS011;3995;50.856;4.404;2023-09-19T04:59:57;10.13;;;3.50;;
7899;SDS011;3995;50.856;4.404;2023-09-19T05:02:24;8.47;;;3.30;;
7899;SDS011;3995;50.856;4.404;2023-09-19T05:04:55;13.43;;;3.60;;
7899;SDS011;3995;50.856;4.404;2023-09-19T05:07:24;8.93;;;3.47;;
7899;SDS011;3995;50.856;4.404;2023-09-19T05:09:51;8.20;;;3.00;;
7899;SDS011;3995;50.856;4.404;2023-09-19T05:12:19;11.43;;;3.40;;
7899;SDS011;3995;50.856;4.404;2023-09-19T05:14:46;6.20;;;2.60;;
7899;SDS011;3995;50.856;4.404;2023-09-19T05:17:13;15.07;;;3.43;;
7899;SDS011;3995;50.856;4.404;2023-09-19T05:19:42;7.63;;;2.93;;
7899;SDS011;3995;50.856;4.404;2023-09-19T05:22:09;12.57;;;3.00;;
7899;SDS011;3995;50.856;4.404;2023-09-19T05:24:36;9.33;;;2.60;;
7899;SDS011;3995;50.856;4.404;2023-09-19T05:27:04;9.03;;;2.70;;
7899;SDS011;3995;50.856;4.404;2023-09-19T05:29:33;10.83;;;3.40;;
7899;SDS011;3995;50.856;4.404;2023-09-19T05:32:00;11.53;;;3.23;;
7899;SDS011;3995;50.856;4.404;2023-09-19T05:34:29;15.00;;;3.27;;
7899;SDS011;3995;50.856;4.404;2023-09-19T05:36:55;10.70;;;3.63;;
7899;SDS011;3995;50.856;4.404;2023-09-19T05:39:22;10.40;;;3.47;;
7899;SDS011;3995;50.856;4.404;2023-09-19T05:41:49;13.00;;;3.30;;
7899;SDS011;3995;50.856;4.404;2023-09-19T05:44:16;8.57;;;2.67;;
7899;SDS011;3995;50.856;4.404;2023-09-19T05:46:45;13.53;;;3.70;;
7899;SDS011;3995;50.856;4.404;2023-09-19T05:49:13;8.17;;;3.13;;
7899;SDS011;3995;50.856;4.404;2023-09-19T05:51:41;13.10;;;2.80;;
7899;SDS011;3995;50.856;4.404;2023-09-19T05:54:08;10.73;;;3.40;;
7899;SDS011;3995;50.856;4.404;2023-09-19T05:56:36;13.63;;;3.50;;
7899;SDS011;3995;50.856;4.404;2023-09-19T05:59:03;7.10;;;2.53;;
7899;SDS011;3995;50.856;4.404;2023-09-19T06:01:30;8.77;;;2.90;;
7899;SDS011;3995;50.856;4.404;2023-09-19T06:04:00;15.97;;;3.40;;
7899;SDS011;3995;50.856;4.404;2023-09-19T06:06:28;13.30;;;2.93;;
7899;SDS011;3995;50.856;4.404;2023-09-19T06:08:55;6.63;;;2.60;;
7899;SDS011;3995;50.856;4.404;2023-09-19T06:11:22;12.97;;;3.60;;
7899;SDS011;3995;50.856;4.404;2023-09-19T06:13:51;9.20;;;3.17;;
7899;SDS011;3995;50.856;4.404;2023-09-19T06:16:18;5.70;;;2.13;;
7899;SDS011;3995;50.856;4.404;2023-09-19T06:18:45;9.67;;;3.17;;
7899;SDS011;3995;50.856;4.404;2023-09-19T06:21:19;11.83;;;3.40;;
7899;SDS011;3995;50.856;4.404;2023-09-19T06:23:46;17.30;;;3.07;;
7899;SDS011;3995;50.856;4.404;2023-09-19T06:26:13;13.53;;;3.37;;
7899;SDS011;3995;50.856;4.404;2023-09-19T06:28:40;12.70;;;3.27;;
7899;SDS011;3995;50.856;4.404;2023-09-19T06:31:07;10.20;;;3.40;;
7899;SDS011;3995;50.856;4.404;2023-09-19T06:33:35;9.50;;;3.03;;
7899;SDS011;3995;50.856;4.404;2023-09-19T06:36:03;10.07;;;2.60;;
7899;SDS011;3995;50.856;4.404;2023-09-19T06:38:32;9.30;;;3.33;;
7899;SDS011;3995;50.856;4.404;2023-09-19T06:41:01;6.80;;;2.53;;
7899;SDS011;3995;50.856;4.404;2023-09-19T06:43:30;12.83;;;3.50;;
7899;SDS011;3995;50.856;4.404;2023-09-19T06:45:57;13.23;;;3.27;;
7899;SDS011;3995;50.856;4.404;2023-09-19T06:48:25;13.23;;;2.90;;
7899;SDS011;3995;50.856;4.404;2023-09-19T06:50:54;9.17;;;2.80;;
7899;SDS011;3995;50.856;4.404;2023-09-19T06:53:21;10.40;;;2.50;;
7899;SDS011;3995;50.856;4.404;2023-09-19T06:55:50;11.17;;;2.80;;
7899;SDS011;3995;50.856;4.404;2023-09-19T06:58:18;8.33;;;3.47;;
7899;SDS011;3995;50.856;4.404;2023-09-19T07:00:45;8.40;;;2.57;;
7899;SDS011;3995;50.856;4.404;2023-09-19T07:03:13;7.37;;;2.53;;
7899;SDS011;3995;50.856;4.404;2023-09-19T07:05:41;9.27;;;3.10;;
7899;SDS011;3995;50.856;4.404;2023-09-19T07:08:09;11.17;;;2.70;;
7899;SDS011;3995;50.856;4.404;2023-09-19T07:10:45;10.77;;;3.10;;
7899;SDS011;3995;50.856;4.404;2023-09-19T07:13:15;9.33;;;2.70;;
7899;SDS011;3995;50.856;4.404;2023-09-19T07:15:42;7.47;;;2.73;;
7899;SDS011;3995;50.856;4.404;2023-09-19T07:18:12;7.40;;;2.50;;
7899;SDS011;3995;50.856;4.404;2023-09-19T07:20:41;7.73;;;3.47;;
7899;SDS011;3995;50.856;4.404;2023-09-19T07:23:14;9.80;;;3.40;;
7899;SDS011;3995;50.856;4.404;2023-09-19T07:25:41;7.30;;;3.53;;
7899;SDS011;3995;50.856;4.404;2023-09-19T07:28:08;10.60;;;3.50;;
7899;SDS011;3995;50.856;4.404;2023-09-19T07:30:37;10.13;;;3.10;;
7899;SDS011;3995;50.856;4.404;2023-09-19T07:33:06;14.80;;;3.30;;
7899;SDS011;3995;50.856;4.404;2023-09-19T07:35:36;8.03;;;3.23;;
7899;SDS011;3995;50.856;4.404;2023-09-19T07:38:04;9.73;;;2.77;;
7899;SDS011;3995;50.856;4.404;2023-09-19T07:40:32;8.53;;;2.83;;
7899;SDS011;3995;50.856;4.404;2023-09-19T07:42:59;5.93;;;2.37;;
7899;SDS011;3995;50.856;4.404;2023-09-19T07:45:30;12.00;;;3.30;;
7899;SDS011;3995;50.856;4.404;2023-09-19T07:47:59;8.70;;;2.87;;
7899;SDS011;3995;50.856;4.404;2023-09-19T07:50:26;8.83;;;3.33;;
7899;SDS011;3995;50.856;4.404;2023-09-19T07:52:53;15.70;;;3.40;;
7899;SDS011;3995;50.856;4.404;2023-09-19T07:55:21;11.53;;;3.83;;
7899;SDS011;3995;50.856;4.404;2023-09-19T07:57:50;9.70;;;3.17;;
7899;SDS011;3995;50.856;4.404;2023-09-19T08:00:18;9.40;;;3.40;;
7899;SDS011;3995;50.856;4.404;2023-09-19T08:02:45;18.20;;;3.70;;
7899;SDS011;3995;50.856;4.404;2023-09-19T08:05:14;11.77;;;3.97;;
7899;SDS011;3995;50.856;4.404;2023-09-19T08:07:42;9.53;;;2.70;;
7899;SDS011;3995;50.856;4.404;2023-09-19T08:10:10;12.13;;;3.50;;
7899;SDS011;3995;50.856;4.404;2023-09-19T08:12:38;16.97;;;3.20;;
7899;SDS011;3995;50.856;4.404;2023-09-19T08:15:11;14.00;;;4.40;;
7899;SDS011;3995;50.856;4.404;2023-09-19T08:17:38;7.90;;;2.70;;
7899;SDS011;3995;50.856;4.404;2023-09-19T08:20:06;10.10;;;3.57;;
7899;SDS011;3995;50.856;4.404;2023-09-19T08:22:42;11.10;;;3.30;;
7899;SDS011;3995;50.856;4.404;2023-09-19T08:25:11;9.43;;;2.60;;
7899;SDS011;3995;50.856;4.404;2023-09-19T08:27:38;10.90;;;2.70;;
7899;SDS011;3995;50.856;4.404;2023-09-19T08:30:06;9.63;;;2.50;;
7899;SDS011;3995;50.856;4.404;2023-09-19T08:32:33;12.20;;;4.70;;
7899;SDS011;3995;50.856;4.404;2023-09-19T08:35:00;9.97;;;3.47;;
7899;SDS011;3995;50.856;4.404;2023-09-19T08:37:29;16.03;;;3.27;;
7899;SDS011;3995;50.856;4.404;2023-09-19T08:39:59;11.23;;;3.50;;
7899;SDS011;3995;50.856;4.404;2023-09-19T08:42:26;7.63;;;2.87;;
7899;SDS011;3995;50.856;4.404;2023-09-19T08:44:53;13.60;;;3.50;;
7899;SDS011;3995;50.856;4.404;2023-09-19T08:47:27;8.80;;;3.13;;
7899;SDS011;3995;50.856;4.404;2023-09-19T08:50:01;7.73;;;3.17;;
7899;SDS011;3995;50.856;4.404;2023-09-19T08:52:41;15.13;;;3.13;;
7899;SDS011;3995;50.856;4.404;2023-09-19T08:55:11;14.70;;;3.40;;
7899;SDS011;3995;50.856;4.404;2023-09-19T08:57:45;13.73;;;3.00;;
7899;SDS011;3995;50.856;4.404;2023-09-19T09:00:14;14.93;;;3.80;;
7899;SDS011;3995;50.856;4.404;2023-09-19T09:02:43;10.57;;;2.93;;
7899;SDS011;3995;50.856;4.404;2023-09-19T09:05:12;12.20;;;3.33;;
7899;SDS011;3995;50.856;4.404;2023-09-19T09:07:41;23.93;;;3.47;;
7899;SDS011;3995;50.856;4.404;2023-09-19T09:10:11;14.80;;;3.17;;
7899;SDS011;3995;50.856;4.404;2023-09-19T09:12:38;6.23;;;2.13;;
7899;SDS011;3995;50.856;4.404;2023-09-19T09:15:06;13.07;;;3.37;;
7899;SDS011;3995;50.856;4.404;2023-09-19T09:17:36;9.03;;;3.33;;
7899;SDS011;3995;50.856;4.404;2023-09-19T09:20:04;7.70;;;3.20;;
7899;SDS011;3995;50.856;4.404;2023-09-19T09:22:33;10.23;;;2.73;;
7899;SDS011;3995;50.856;4.404;2023-09-19T09:25:01;11.73;;;3.23;;
7899;SDS011;3995;50.856;4.404;2023-09-19T09:27:31;19.83;;;3.47;;
7899;SDS011;3995;50.856;4.404;2023-09-19T09:29:59;8.40;;;2.27;;
7899;SDS011;3995;50.856;4.404;2023-09-19T09:32:26;8.40;;;2.80;;
7899;SDS011;3995;50.856;4.404;2023-09-19T09:34:55;16.93;;;3.27;;
7899;SDS011;3995;50.856;4.404;2023-09-19T09:37:23;8.10;;;2.97;;
7899;SDS011;3995;50.856;4.404;2023-09-19T09:39:52;8.13;;;2.90;;
7899;SDS011;3995;50.856;4.404;2023-09-19T09:42:30;6.80;;;2.70;;
7899;SDS011;3995;50.856;4.404;2023-09-19T09:45:13;9.43;;;2.73;;
7899;SDS011;3995;50.856;4.404;2023-09-19T09:47:41;8.67;;;2.60;;
7899;SDS011;3995;50.856;4.404;2023-09-19T09:50:23;6.30;;;3.27;;
7899;SDS011;3995;50.856;4.404;2023-09-19T09:53:05;9.60;;;3.00;;
7899;SDS011;3995;50.856;4.404;2023-09-19T09:55:59;10.50;;;2.50;;
7899;SDS011;3995;50.856;4.404;2023-09-19T09:58:30;8.33;;;2.90;;
7899;SDS011;3995;50.856;4.404;2023-09-19T10:00:58;6.33;;;1.93;;
7899;SDS011;3995;50.856;4.404;2023-09-19T10:03:35;11.47;;;2.37;;
7899;SDS011;3995;50.856;4.404;2023-09-19T10:06:06;8.27;;;2.40;;
7899;SDS011;3995;50.856;4.404;2023-09-19T10:08:59;7.00;;;2.10;;
7899;SDS011;3995;50.856;4.404;2023-09-19T10:11:46;6.70;;;2.60;;
7899;SDS011;3995;50.856;4.404;2023-09-19T10:14:20;5.93;;;2.33;;
7899;SDS011;3995;50.856;4.404;2023-09-19T10:16:54;3.90;;;2.00;;
7899;SDS011;3995;50.856;4.404;2023-09-19T10:19:29;7.90;;;1.93;;
7899;SDS011;3995;50.856;4.404;2023-09-19T10:22:00;12.93;;;2.77;;
7899;SDS011;3995;50.856;4.404;2023-09-19T10:24:29;8.13;;;2.10;;
7899;SDS011;3995;50.856;4.404;2023-09-19T10:26:56;5.60;;;2.37;;
7899;SDS011;3995;50.856;4.404;2023-09-19T10:29:27;8.63;;;3.43;;
7899;SDS011;3995;50.856;4.404;2023-09-19T10:32:01;7.03;;;2.33;;
7899;SDS011;3995;50.856;4.404;2023-09-19T10:34:31;6.43;;;2.13;;
7899;SDS011;3995;50.856;4.404;2023-09-19T10:37:02;3.90;;;2.00;;
7899;SDS011;3995;50.856;4.404;2023-09-19T10:39:31;6.33;;;2.27;;
7899;SDS011;3995;50.856;4.404;2023-09-19T10:42:01;11.10;;;2.37;;
7899;SDS011;3995;50.856;4.404;2023-09-19T10:44:32;7.00;;;2.30;;
7899;SDS011;3995;50.856;4.404;2023-09-19T10:46:59;11.20;;;2.50;;
7899;SDS011;3995;50.856;4.404;2023-09-19T10:49:29;5.33;;;2.07;;
7899;SDS011;3995;50.856;4.404;2023-09-19T10:51:58;5.00;;;1.97;;
7899;SDS011;3995;50.856;4.404;2023-09-19T10:54:28;6.90;;;2.43;;
7899;SDS011;3995;50.856;4.404;2023-09-19T10:57:02;4.93;;;1.90;;
7899;SDS011;3995;50.856;4.404;2023-09-19T10:59:32;5.63;;;1.70;;
7899;SDS011;3995;50.856;4.404;2023-09-19T11:02:15;5.20;;;1.73;;
7899;SDS011;3995;50.856;4.404;2023-09-19T11:04:44;4.73;;;2.07;;
7899;SDS011;3995;50.856;4.404;2023-09-19T11:07:15;4.73;;;1.90;;
7899;SDS011;3995;50.856;4.404;2023-09-19T11:09:45;4.70;;;1.93;;
7899;SDS011;3995;50.856;4.404;2023-09-19T11:18:51;3.93;;;2.03;;
7899;SDS011;3995;50.856;4.404;2023-09-19T11:21:41;3.50;;;1.50;;
7899;SDS011;3995;50.856;4.404;2023-09-19T11:24:27;7.50;;;2.50;;
7899;SDS011;3995;50.856;4.404;2023-09-19T11:27:08;4.97;;;2.40;;
7899;SDS011;3995;50.856;4.404;2023-09-19T11:29:38;5.37;;;2.00;;
7899;SDS011;3995;50.856;4.404;2023-09-19T11:32:07;6.10;;;2.10;;
7899;SDS011;3995;50.856;4.404;2023-09-19T11:34:41;9.33;;;1.90;;
7899;SDS011;3995;50.856;4.404;2023-09-19T11:40:33;9.70;;;1.60;;
7899;SDS011;3995;50.856;4.404;2023-09-19T11:43:00;5.83;;;2.10;;
7899;SDS011;3995;50.856;4.404;2023-09-19T11:46:05;7.60;;;1.70;;
7899;SDS011;3995;50.856;4.404;2023-09-19T11:48:34;11.43;;;1.57;;
7899;SDS011;3995;50.856;4.404;2023-09-19T11:51:12;7.27;;;1.80;;
7899;SDS011;3995;50.856;4.404;2023-09-19T11:53:49;4.80;;;1.60;;
7899;SDS011;3995;50.856;4.404;2023-09-19T11:56:17;5.20;;;1.77;;
7899;SDS011;3995;50.856;4.404;2023-09-19T11:58:46;12.17;;;1.70;;
7899;SDS011;3995;50.856;4.404;2023-09-19T12:01:15;7.40;;;1.80;;
7899;SDS011;3995;50.856;4.404;2023-09-19T12:03:52;7.43;;;1.70;;
7899;SDS011;3995;50.856;4.404;2023-09-19T12:06:22;4.33;;;1.50;;
7899;SDS011;3995;50.856;4.404;2023-09-19T12:08:49;17.97;;;3.53;;
7899;SDS011;3995;50.856;4.404;2023-09-19T12:11:19;6.30;;;1.87;;
7899;SDS011;3995;50.856;4.404;2023-09-19T12:13:48;6.97;;;1.83;;
7899;SDS011;3995;50.856;4.404;2023-09-19T12:16:17;3.33;;;1.33;;
7899;SDS011;3995;50.856;4.404;2023-09-19T12:18:46;20.50;;;3.40;;
7899;SDS011;3995;50.856;4.404;2023-09-19T12:21:23;4.23;;;1.47;;
7899;SDS011;3995;50.856;4.404;2023-09-19T12:24:05;4.17;;;1.50;;
7899;SDS011;3995;50.856;4.404;2023-09-19T12:26:40;3.87;;;1.60;;
7899;SDS011;3995;50.856;4.404;2023-09-19T12:29:15;4.93;;;1.80;;
7899;SDS011;3995;50.856;4.404;2023-09-19T12:31:50;12.43;;;1.83;;
7899;SDS011;3995;50.856;4.404;2023-09-19T12:34:19;9.63;;;1.90;;
7899;SDS011;3995;50.856;4.404;2023-09-19T12:36:49;6.07;;;1.70;;
7899;SDS011;3995;50.856;4.404;2023-09-19T12:39:30;4.70;;;1.70;;
7899;SDS011;3995;50.856;4.404;2023-09-19T12:41:57;4.73;;;1.70;;
7899;SDS011;3995;50.856;4.404;2023-09-19T12:44:24;10.40;;;2.33;;
7899;SDS011;3995;50.856;4.404;2023-09-19T12:46:51;12.97;;;2.23;;
7899;SDS011;3995;50.856;4.404;2023-09-19T12:49:20;6.97;;;1.60;;
7899;SDS011;3995;50.856;4.404;2023-09-19T12:51:49;4.30;;;2.10;;
7899;SDS011;3995;50.856;4.404;2023-09-19T12:54:21;7.10;;;1.60;;
7899;SDS011;3995;50.856;4.404;2023-09-19T12:56:51;3.67;;;1.60;;
7899;SDS011;3995;50.856;4.404;2023-09-19T12:59:19;4.03;;;1.60;;
7899;SDS011;3995;50.856;4.404;2023-09-19T13:02:03;3.30;;;1.63;;
7899;SDS011;3995;50.856;4.404;2023-09-19T13:04:32;5.47;;;1.90;;
7899;SDS011;3995;50.856;4.404;2023-09-19T13:07:06;3.47;;;1.30;;
7899;SDS011;3995;50.856;4.404;2023-09-19T13:09:35;8.00;;;1.87;;
7899;SDS011;3995;50.856;4.404;2023-09-19T13:12:04;5.63;;;1.60;;
7899;SDS011;3995;50.856;4.404;2023-09-19T13:15:06;32.97;;;3.07;;
7899;SDS011;3995;50.856;4.404;2023-09-19T13:17:42;5.50;;;2.00;;
7899;SDS011;3995;50.856;4.404;2023-09-19T13:20:20;13.80;;;2.20;;
7899;SDS011;3995;50.856;4.404;2023-09-19T13:22:54;6.20;;;2.17;;
7899;SDS011;3995;50.856;4.404;2023-09-19T13:25:25;5.37;;;1.80;;
7899;SDS011;3995;50.856;4.404;2023-09-19T13:27:55;7.40;;;2.60;;
7899;SDS011;3995;50.856;4.404;2023-09-19T13:30:23;5.73;;;1.50;;
7899;SDS011;3995;50.856;4.404;2023-09-19T13:32:52;2.77;;;1.50;;
7899;SDS011;3995;50.856;4.404;2023-09-19T13:35:19;3.80;;;2.00;;
7899;SDS011;3995;50.856;4.404;2023-09-19T13:37:47;3.97;;;1.60;;
7899;SDS011;3995;50.856;4.404;2023-09-19T13:40:18;8.50;;;1.70;;
7899;SDS011;3995;50.856;4.404;2023-09-19T13:42:45;9.30;;;1.90;;
7899;SDS011;3995;50.856;4.404;2023-09-19T13:45:12;5.40;;;2.27;;
7899;SDS011;3995;50.856;4.404;2023-09-19T13:47:42;6.03;;;1.83;;
7899;SDS011;3995;50.856;4.404;2023-09-19T13:50:09;10.53;;;1.77;;
7899;SDS011;3995;50.856;4.404;2023-09-19T13:52:36;8.63;;;2.07;;
7899;SDS011;3995;50.856;4.404;2023-09-19T13:55:03;5.23;;;1.67;;
7899;SDS011;3995;50.856;4.404;2023-09-19T13:57:33;4.83;;;1.73;;
7899;SDS011;3995;50.856;4.404;2023-09-19T14:00:00;5.93;;;2.33;;
7899;SDS011;3995;50.856;4.404;2023-09-19T14:02:28;4.17;;;1.60;;
7899;SDS011;3995;50.856;4.404;2023-09-19T14:04:55;6.17;;;2.00;;
7899;SDS011;3995;50.856;4.404;2023-09-19T14:07:23;10.07;;;2.00;;
7899;SDS011;3995;50.856;4.404;2023-09-19T14:09:50;5.17;;;1.77;;
7899;SDS011;3995;50.856;4.404;2023-09-19T14:12:17;4.53;;;1.70;;
7899;SDS011;3995;50.856;4.404;2023-09-19T14:14:46;7.27;;;2.20;;
7899;SDS011;3995;50.856;4.404;2023-09-19T14:17:16;5.17;;;2.30;;
7899;SDS011;3995;50.856;4.404;2023-09-19T14:19:43;6.27;;;2.37;;
7899;SDS011;3995;50.856;4.404;2023-09-19T14:22:10;5.80;;;1.93;;
7899;SDS011;3995;50.856;4.404;2023-09-19T14:24:39;16.70;;;2.80;;
7899;SDS011;3995;50.856;4.404;2023-09-19T14:27:06;14.03;;;2.20;;
7899;SDS011;3995;50.856;4.404;2023-09-19T14:29:34;6.50;;;1.90;;
7899;SDS011;3995;50.856;4.404;2023-09-19T14:32:03;2.97;;;1.70;;
7899;SDS011;3995;50.856;4.404;2023-09-19T14:34:31;5.73;;;2.13;;
7899;SDS011;3995;50.856;4.404;2023-09-19T14:36:58;4.67;;;1.80;;
7899;SDS011;3995;50.856;4.404;2023-09-19T14:39:25;12.87;;;2.50;;
7899;SDS011;3995;50.856;4.404;2023-09-19T14:41:52;6.00;;;2.03;;
7899;SDS011;3995;50.856;4.404;2023-09-19T14:44:19;15.27;;;2.70;;
7899;SDS011;3995;50.856;4.404;2023-09-19T14:46:46;9.50;;;2.10;;
7899;SDS011;3995;50.856;4.404;2023-09-19T14:49:15;6.60;;;2.00;;
7899;SDS011;3995;50.856;4.404;2023-09-19T14:51:42;5.53;;;1.73;;
7899;SDS011;3995;50.856;4.404;2023-09-19T14:54:09;5.03;;;1.60;;
7899;SDS011;3995;50.856;4.404;2023-09-19T14:56:36;7.97;;;2.37;;
7899;SDS011;3995;50.856;4.404;2023-09-19T14:59:03;4.83;;;1.83;;
7899;SDS011;3995;50.856;4.404;2023-09-19T15:01:32;5.27;;;1.93;;
7899;SDS011;3995;50.856;4.404;2023-09-19T15:03:59;7.33;;;2.23;;
7899;SDS011;3995;50.856;4.404;2023-09-19T15:06:28;6.90;;;2.90;;
7899;SDS011;3995;50.856;4.404;2023-09-19T15:08:55;4.00;;;2.10;;
7899;SDS011;3995;50.856;4.404;2023-09-19T15:11:23;4.97;;;1.87;;
7899;SDS011;3995;50.856;4.404;2023-09-19T15:13:50;7.40;;;2.50;;
7899;SDS011;3995;50.856;4.404;2023-09-19T15:16:18;8.30;;;2.53;;
7899;SDS011;3995;50.856;4.404;2023-09-19T15:18:46;5.90;;;1.90;;
7899;SDS011;3995;50.856;4.404;2023-09-19T15:21:13;9.17;;;2.27;;
7899;SDS011;3995;50.856;4.404;2023-09-19T15:23:43;6.30;;;1.87;;
7899;SDS011;3995;50.856;4.404;2023-09-19T15:26:12;5.53;;;1.77;;
7899;SDS011;3995;50.856;4.404;2023-09-19T15:28:42;5.67;;;2.57;;
7899;SDS011;3995;50.856;4.404;2023-09-19T15:31:09;3.73;;;1.83;;
7899;SDS011;3995;50.856;4.404;2023-09-19T15:33:37;6.47;;;1.97;;
7899;SDS011;3995;50.856;4.404;2023-09-19T15:36:05;7.53;;;2.00;;
7899;SDS011;3995;50.856;4.404;2023-09-19T15:41:24;3.90;;;1.90;;